createdAt,value
2022-11-14T00:00:30.683Z,7.36
2022-11-14T00:03:05.883Z,7.35
2022-11-14T00:05:40.693Z,7.31
2022-11-14T00:08:15.812Z,7.36
2022-11-14T00:10:48.257Z,7.33
2022-11-14T00:13:20.936Z,7.26
2022-11-14T00:15:55.391Z,7.24
2022-11-14T00:18:26.336Z,7.25
2022-11-14T00:20:57.090Z,7.18
2022-11-14T00:23:27.095Z,7.18
2022-11-14T00:25:57.133Z,7.09
2022-11-14T00:28:26.059Z,7.07
2022-11-14T00:30:55.379Z,7.10
2022-11-14T00:33:26.350Z,7.18
2022-11-14T00:35:57.368Z,7.22
2022-11-14T00:38:26.937Z,7.22
2022-11-14T00:40:56.505Z,7.24
2022-11-14T00:43:30.714Z,7.30
2022-11-14T00:45:59.804Z,7.35
2022-11-14T00:48:33.984Z,7.37
2022-11-14T00:51:03.072Z,7.39
2022-11-14T00:53:33.319Z,7.41
2022-11-14T00:56:03.230Z,7.38
2022-11-14T00:58:33.213Z,7.37
2022-11-14T01:01:02.811Z,7.33
2022-11-14T01:03:42.119Z,7.30
2022-11-14T01:06:16.021Z,7.32
2022-11-14T01:08:46.344Z,7.38
2022-11-14T01:11:21.909Z,7.38
2022-11-14T01:13:52.220Z,7.46
2022-11-14T01:16:23.666Z,7.49
2022-11-14T01:18:55.986Z,7.37
2022-11-14T01:21:27.120Z,7.39
2022-11-14T01:23:57.424Z,7.35
2022-11-14T01:26:27.336Z,7.29
2022-11-14T01:28:56.413Z,7.24
2022-11-14T01:31:27.315Z,7.29
2022-11-14T01:34:00.357Z,7.30
2022-11-14T01:36:29.371Z,7.21
2022-11-14T01:38:58.180Z,7.22
2022-11-14T01:41:29.649Z,7.23
2022-11-14T01:43:58.607Z,7.22
2022-11-14T01:46:32.741Z,7.21
2022-11-14T01:49:13.558Z,7.17
2022-11-14T01:51:49.450Z,7.17
2022-11-14T01:54:26.564Z,7.17
2022-11-14T01:57:01.717Z,7.17
2022-11-14T01:59:37.821Z,7.22
2022-11-14T02:02:18.316Z,7.21
2022-11-14T02:04:55.100Z,7.16
2022-11-14T02:07:28.780Z,7.16
2022-11-14T02:09:59.811Z,7.12
2022-11-14T02:12:28.874Z,7.09
2022-11-14T02:15:02.804Z,7.12
2022-11-14T02:17:34.697Z,7.14
2022-11-14T02:20:20.416Z,7.20
2022-11-14T02:22:51.026Z,7.11
2022-11-14T02:25:22.493Z,7.15
2022-11-14T02:27:53.685Z,7.09
2022-11-14T02:30:25.790Z,7.14
2022-11-14T02:33:10.595Z,7.09
2022-11-14T02:35:42.804Z,7.09
2022-11-14T02:38:11.940Z,7.09
2022-11-14T02:40:40.946Z,7.07
2022-11-14T02:43:10.588Z,7.01
2022-11-14T02:45:39.628Z,6.94
2022-11-14T02:48:09.914Z,6.88
2022-11-14T02:50:40.634Z,6.90
2022-11-14T02:53:10.785Z,6.86
2022-11-14T02:55:39.851Z,6.79
2022-11-14T02:58:08.717Z,6.71
2022-11-14T03:00:53.365Z,6.71
2022-11-14T03:03:26.652Z,6.81
2022-11-14T03:06:01.440Z,6.81
2022-11-14T03:08:31.353Z,6.82
2022-11-14T03:11:06.308Z,6.78
2022-11-14T03:13:36.220Z,6.78
2022-11-14T03:16:10.017Z,6.64
2022-11-14T03:18:39.932Z,6.63
2022-11-14T03:21:14.433Z,6.61
2022-11-14T03:23:44.651Z,6.57
2022-11-14T03:26:20.013Z,6.53
2022-11-14T03:28:49.139Z,6.50
2022-11-14T03:31:18.338Z,6.56
2022-11-14T03:33:49.533Z,6.54
2022-11-14T03:36:20.133Z,6.54
2022-11-14T03:39:02.452Z,6.51
2022-11-14T03:41:32.282Z,6.47
2022-11-14T03:44:01.278Z,6.46
2022-11-14T03:46:30.700Z,6.50
2022-11-14T03:48:59.705Z,6.47
2022-11-14T03:51:28.766Z,6.49
2022-11-14T03:53:59.412Z,6.46
2022-11-14T03:56:30.139Z,6.43
2022-11-14T03:58:59.472Z,6.42
2022-11-14T04:01:32.062Z,6.54
2022-11-14T04:04:00.607Z,6.49
2022-11-14T04:06:29.558Z,6.44
2022-11-14T04:09:01.365Z,6.44
2022-11-14T04:11:32.837Z,6.36
2022-11-14T04:14:01.813Z,6.36
2022-11-14T04:16:31.178Z,6.31
2022-11-14T04:19:01.220Z,6.27
2022-11-14T04:21:30.232Z,6.29
2022-11-14T04:24:05.952Z,6.27
2022-11-14T04:26:38.989Z,6.25
2022-11-14T04:29:08.428Z,6.28
2022-11-14T04:31:38.699Z,6.28
2022-11-14T04:34:07.892Z,6.31
2022-11-14T04:36:36.977Z,6.39
2022-11-14T04:39:07.831Z,6.35
2022-11-14T04:41:37.181Z,6.39
2022-11-14T04:44:11.251Z,6.36
2022-11-14T04:46:40.645Z,6.39
2022-11-14T04:49:09.791Z,6.43
2022-11-14T04:51:38.879Z,6.40
2022-11-14T04:54:10.076Z,6.40
2022-11-14T04:56:42.644Z,6.39
2022-11-14T04:59:14.712Z,6.42
2022-11-14T05:01:54.867Z,6.43
2022-11-14T05:04:24.335Z,6.40
2022-11-14T05:06:53.640Z,6.33
2022-11-14T05:09:24.344Z,6.27
2022-11-14T05:11:53.601Z,6.26
2022-11-14T05:14:25.005Z,6.17
2022-11-14T05:16:56.981Z,6.18
2022-11-14T05:19:26.868Z,6.12
2022-11-14T05:21:59.376Z,6.05
2022-11-14T05:24:30.185Z,6.07
2022-11-14T05:27:00.372Z,6.02
2022-11-14T05:29:29.562Z,6.00
2022-11-14T05:31:59.536Z,6.02
2022-11-14T05:34:31.044Z,6.07
2022-11-14T05:36:59.832Z,6.06
2022-11-14T05:39:30.235Z,6.06
2022-11-14T05:41:58.886Z,5.99
2022-11-14T05:44:27.880Z,5.97
2022-11-14T05:46:59.910Z,5.87
2022-11-14T05:49:28.928Z,5.83
2022-11-14T05:51:57.989Z,5.83
2022-11-14T05:54:27.036Z,5.83
2022-11-14T05:56:57.468Z,5.79
2022-11-14T05:59:26.618Z,5.76
2022-11-14T06:01:58.821Z,5.67
2022-11-14T06:04:29.872Z,5.56
2022-11-14T06:07:01.440Z,5.45
2022-11-14T06:09:33.080Z,5.38
2022-11-14T06:12:06.440Z,5.31
2022-11-14T06:14:35.802Z,5.29
2022-11-14T06:17:05.076Z,5.32
2022-11-14T06:19:36.014Z,5.29
2022-11-14T06:22:05.955Z,5.27
2022-11-14T06:24:36.052Z,5.30
2022-11-14T06:27:06.518Z,5.27
2022-11-14T06:29:38.126Z,5.34
2022-11-14T06:32:08.198Z,5.34
2022-11-14T06:34:41.201Z,5.33
2022-11-14T06:37:10.287Z,5.32
2022-11-14T06:39:39.270Z,5.29
2022-11-14T06:42:09.883Z,5.31
2022-11-14T06:44:44.480Z,5.31
2022-11-14T06:47:13.594Z,5.25
2022-11-14T06:49:42.583Z,5.26
2022-11-14T06:52:11.808Z,5.22
2022-11-14T06:54:41.073Z,5.17
2022-11-14T06:57:12.003Z,5.18
2022-11-14T06:59:41.714Z,5.32
2022-11-14T07:02:20.499Z,5.33
2022-11-14T07:04:51.087Z,5.30
2022-11-14T07:07:20.076Z,5.28
2022-11-14T07:09:49.491Z,5.29
2022-11-14T07:12:19.899Z,5.29
2022-11-14T07:14:52.258Z,5.46
2022-11-14T07:17:24.946Z,5.52
2022-11-14T07:19:56.961Z,5.59
2022-11-14T07:22:25.874Z,5.56
2022-11-14T07:24:55.191Z,5.61
2022-11-14T07:27:25.723Z,5.72
2022-11-14T07:29:55.075Z,5.63
2022-11-14T07:32:26.399Z,5.68
2022-11-14T07:35:00.805Z,5.66
2022-11-14T07:37:31.462Z,5.74
2022-11-14T07:40:00.523Z,5.79
2022-11-14T07:42:32.336Z,5.86
2022-11-14T07:45:01.885Z,5.79
2022-11-14T07:47:30.784Z,5.84
2022-11-14T07:50:00.083Z,5.84
2022-11-14T07:52:33.875Z,5.92
2022-11-14T07:55:03.390Z,5.97
2022-11-14T07:57:41.891Z,6.03
2022-11-14T08:00:17.296Z,6.07
2022-11-14T08:02:48.429Z,6.08
2022-11-14T08:05:17.659Z,6.13
2022-11-14T08:07:46.875Z,6.20
2022-11-14T08:10:16.340Z,6.14
2022-11-14T08:12:56.261Z,6.37
2022-11-14T08:15:34.439Z,6.32
2022-11-14T08:18:03.802Z,6.38
2022-11-14T08:20:32.758Z,6.44
2022-11-14T08:23:14.646Z,6.52
2022-11-14T08:25:44.159Z,6.67
2022-11-14T08:28:14.995Z,6.65
2022-11-14T08:30:44.327Z,6.65
2022-11-14T08:33:13.341Z,6.64
2022-11-14T08:35:45.977Z,6.78
2022-11-14T08:38:14.746Z,6.88
2022-11-14T08:40:46.281Z,7.00
2022-11-14T08:43:17.410Z,7.09
2022-11-14T08:45:46.514Z,7.04
2022-11-14T08:48:16.821Z,6.98
2022-11-14T08:50:49.432Z,7.06
2022-11-14T08:53:18.224Z,7.07
2022-11-14T08:55:49.607Z,7.25
2022-11-14T08:58:20.239Z,7.23
2022-11-14T09:00:49.596Z,7.53
2022-11-14T09:03:18.671Z,7.45
2022-11-14T09:05:53.395Z,7.51
2022-11-14T09:08:22.845Z,7.58
2022-11-14T09:10:52.847Z,7.72
2022-11-14T09:13:24.448Z,7.81
2022-11-14T09:15:53.947Z,7.82
2022-11-14T09:18:24.001Z,7.68
2022-11-14T09:20:55.136Z,7.79
2022-11-14T09:23:25.921Z,7.87
2022-11-14T09:25:57.301Z,8.08
2022-11-14T09:28:29.777Z,7.98
2022-11-14T09:31:03.250Z,7.92
2022-11-14T09:33:32.544Z,7.95
2022-11-14T09:36:03.471Z,7.95
2022-11-14T09:38:38.252Z,7.99
2022-11-14T09:41:26.363Z,8.02
2022-11-14T09:44:45.455Z,8.22
2022-11-14T09:47:22.087Z,8.02
2022-11-14T09:49:56.088Z,7.99
2022-11-14T09:52:38.155Z,8.01
2022-11-14T09:55:21.026Z,8.01
2022-11-14T09:57:52.289Z,8.09
2022-11-14T10:00:26.109Z,8.28
2022-11-14T10:03:16.505Z,8.32
2022-11-14T10:06:10.406Z,8.22
2022-11-14T10:09:08.108Z,8.15
2022-11-14T10:11:42.685Z,8.21
2022-11-14T10:15:14.887Z,8.43
2022-11-14T10:18:08.471Z,8.44
2022-11-14T10:20:49.923Z,8.43
2022-11-14T10:23:38.681Z,8.74
2022-11-14T10:26:19.299Z,8.99
2022-11-14T10:29:12.341Z,9.44
2022-11-14T10:31:55.362Z,9.74
2022-11-14T10:34:36.409Z,10.11
2022-11-14T10:37:19.457Z,9.93
2022-11-14T10:39:56.634Z,9.57
2022-11-14T10:42:34.251Z,9.68
2022-11-14T10:45:13.170Z,9.65
2022-11-14T10:47:52.791Z,9.78
2022-11-14T10:50:31.816Z,10.12
2022-11-14T10:53:08.928Z,10.23
2022-11-14T10:56:02.562Z,10.24
2022-11-14T10:58:30.424Z,10.03
2022-11-14T11:01:39.631Z,10.17
2022-11-14T11:04:28.684Z,10.25
2022-11-14T11:07:39.263Z,10.52
2022-11-14T11:10:38.330Z,10.20
2022-11-14T11:13:10.463Z,9.87
2022-11-14T11:15:44.003Z,10.01
2022-11-14T11:18:33.045Z,9.64
2022-11-14T11:21:10.680Z,9.65
2022-11-14T11:23:52.272Z,9.69
2022-11-14T11:26:29.695Z,9.55
2022-11-14T11:29:19.421Z,9.37
2022-11-14T11:31:54.459Z,9.51
2022-11-14T11:34:28.517Z,9.60
2022-11-14T11:37:05.948Z,9.48
2022-11-14T11:39:44.279Z,9.57
2022-11-14T11:42:24.326Z,9.80
2022-11-14T11:45:01.872Z,9.98
2022-11-14T11:47:38.049Z,9.73
2022-11-14T11:50:17.682Z,9.89
2022-11-14T11:53:02.690Z,10.10
2022-11-14T11:55:40.537Z,10.20
2022-11-14T11:58:22.461Z,9.73
2022-11-14T12:00:55.622Z,9.91
2022-11-14T12:03:30.029Z,9.86
2022-11-14T12:06:16.644Z,9.90
2022-11-14T12:09:02.934Z,9.90
2022-11-14T12:11:39.414Z,10.01
2022-11-14T12:14:50.521Z,10.00
2022-11-14T12:17:56.694Z,10.00
2022-11-14T12:21:07.647Z,9.89
2022-11-14T12:24:43.231Z,9.59
2022-11-14T12:27:30.452Z,9.76
2022-11-14T12:30:17.736Z,9.67
2022-11-14T12:32:52.578Z,9.86
2022-11-14T12:35:29.614Z,9.70
2022-11-14T12:38:06.189Z,9.58
2022-11-14T12:40:40.333Z,9.64
2022-11-14T12:43:41.845Z,9.64
2022-11-14T12:46:13.328Z,9.38
2022-11-14T12:48:45.062Z,9.61
2022-11-14T12:51:51.227Z,9.42
2022-11-14T12:54:46.513Z,9.16
2022-11-14T12:57:49.823Z,9.16
2022-11-14T13:00:21.272Z,9.13
2022-11-14T13:03:28.981Z,9.10
2022-11-14T13:06:05.811Z,9.22
2022-11-14T13:09:24.972Z,9.00
2022-11-14T13:12:29.173Z,9.01
2022-11-14T13:15:37.177Z,9.02
2022-11-14T13:18:41.918Z,9.04
2022-11-14T13:21:45.429Z,9.03
2022-11-14T13:24:21.074Z,8.93
2022-11-14T13:26:55.207Z,8.87
2022-11-14T13:29:54.505Z,8.83
2022-11-14T13:33:06.109Z,8.83
2022-11-14T13:36:04.845Z,8.71
2022-11-14T13:39:07.436Z,8.82
2022-11-14T13:42:18.250Z,8.59
2022-11-14T13:45:45.475Z,8.54
2022-11-14T13:48:48.685Z,8.49
2022-11-14T13:54:18.576Z,8.40
2022-11-14T13:57:05.265Z,8.35
2022-11-14T14:00:07.147Z,8.33
2022-11-14T14:03:16.236Z,8.30
2022-11-14T14:06:12.208Z,8.27
2022-11-14T14:09:14.312Z,8.20
2022-11-14T14:12:03.540Z,8.13
2022-11-14T14:15:07.141Z,8.05
2022-11-14T14:17:55.355Z,8.04
2022-11-14T14:20:37.929Z,7.98
2022-11-14T14:23:29.542Z,7.97
2022-11-14T14:26:15.840Z,7.85
2022-11-14T14:29:03.596Z,7.86
2022-11-14T14:31:40.024Z,7.78
2022-11-14T14:34:25.661Z,7.74
2022-11-14T14:36:59.587Z,7.61
2022-11-14T14:39:30.996Z,7.51
2022-11-14T14:42:02.527Z,7.46
2022-11-14T14:44:43.845Z,7.30
2022-11-14T14:47:19.370Z,7.19
2022-11-14T14:49:49.991Z,7.10
2022-11-14T14:52:23.514Z,7.01
2022-11-14T14:54:57.939Z,6.88
2022-11-14T14:57:29.987Z,6.76
2022-11-14T15:00:07.323Z,6.70
2022-11-14T15:02:37.853Z,6.55
2022-11-14T15:05:08.545Z,6.46
2022-11-14T15:07:41.515Z,6.38
2022-11-14T15:10:23.824Z,6.26
2022-11-14T15:12:58.224Z,6.23
2022-11-14T15:15:29.144Z,6.10
2022-11-14T15:18:02.759Z,6.06
2022-11-14T15:20:32.316Z,6.02
2022-11-14T15:23:07.935Z,6.00
2022-11-14T15:25:39.880Z,5.89
2022-11-14T15:28:21.469Z,5.87
2022-11-14T15:31:05.247Z,5.78
2022-11-14T15:33:36.836Z,5.73
2022-11-14T15:36:14.666Z,5.63
2022-11-14T15:39:02.198Z,5.53
2022-11-14T15:41:33.992Z,5.46
2022-11-14T15:44:05.872Z,5.44
2022-11-14T15:46:48.664Z,5.42
2022-11-14T15:49:32.962Z,5.40
2022-11-14T15:52:04.630Z,5.31
2022-11-14T15:54:35.443Z,5.26
2022-11-14T15:57:18.001Z,5.21
2022-11-14T15:59:48.131Z,5.21
2022-11-14T16:02:22.048Z,5.14
2022-11-14T16:04:53.678Z,5.05
2022-11-14T16:07:27.240Z,4.98
2022-11-14T16:09:56.362Z,4.96
2022-11-14T16:12:25.663Z,4.91
2022-11-14T16:14:58.864Z,4.81
2022-11-14T16:17:28.502Z,4.79
2022-11-14T16:20:01.287Z,4.74
2022-11-14T16:22:34.227Z,4.59
2022-11-14T16:25:03.480Z,4.54
2022-11-14T16:27:33.563Z,4.37
2022-11-14T16:30:04.694Z,4.23
2022-11-14T16:32:33.755Z,4.31
2022-11-14T16:35:08.821Z,4.38
2022-11-14T16:37:38.436Z,4.31
2022-11-14T16:40:14.976Z,4.35
2022-11-14T16:42:46.420Z,4.40
2022-11-14T16:45:17.057Z,4.23
2022-11-14T16:47:48.900Z,4.12
2022-11-14T16:50:19.403Z,4.13
2022-11-14T16:52:49.087Z,4.09
2022-11-14T16:55:18.311Z,4.17
2022-11-14T16:57:47.335Z,4.10
2022-11-14T17:00:18.836Z,4.01
2022-11-14T17:02:48.246Z,3.87
2022-11-14T17:05:17.661Z,3.84
2022-11-14T17:07:48.381Z,3.77
2022-11-14T17:10:17.385Z,3.59
2022-11-14T17:12:46.273Z,3.49
2022-11-14T17:15:17.267Z,3.54
2022-11-14T17:17:50.471Z,3.51
2022-11-14T17:20:19.657Z,3.53
2022-11-14T17:22:48.538Z,3.50
2022-11-14T17:25:20.709Z,3.51
2022-11-14T17:27:50.101Z,3.45
2022-11-14T17:30:22.048Z,3.42
2022-11-14T17:32:56.683Z,3.32
2022-11-14T17:35:25.666Z,3.27
2022-11-14T17:38:00.086Z,3.25
2022-11-14T17:40:31.004Z,3.24
2022-11-14T17:42:59.985Z,3.27
2022-11-14T17:45:30.691Z,3.33
2022-11-14T17:47:59.500Z,3.26
2022-11-14T17:50:33.202Z,3.17
2022-11-14T17:53:06.627Z,3.13
2022-11-14T17:55:35.780Z,3.05
2022-11-14T17:58:04.754Z,2.95
2022-11-14T18:00:35.611Z,2.81
2022-11-14T18:03:04.865Z,2.72
2022-11-14T18:05:34.834Z,2.64
2022-11-14T18:08:04.182Z,2.58
2022-11-14T18:10:35.001Z,2.56
2022-11-14T18:13:05.367Z,2.69
2022-11-14T18:15:39.163Z,2.70
2022-11-14T18:18:09.139Z,2.76
2022-11-14T18:20:42.539Z,2.68
2022-11-14T18:23:14.451Z,2.60
2022-11-14T18:25:44.018Z,2.68
2022-11-14T18:28:12.917Z,2.70
2022-11-14T18:30:56.089Z,2.73
2022-11-14T18:33:25.214Z,2.74
2022-11-14T18:36:01.872Z,2.83
2022-11-14T18:38:36.902Z,2.93
2022-11-14T18:41:12.001Z,2.92
2022-11-14T18:43:41.123Z,3.03
2022-11-14T18:46:16.777Z,3.08
2022-11-14T18:48:48.455Z,3.09
2022-11-14T18:51:22.267Z,3.10
2022-11-14T18:53:51.920Z,3.08
2022-11-14T18:56:25.048Z,2.95
2022-11-14T18:58:58.810Z,2.84
2022-11-14T19:01:32.343Z,2.81
2022-11-14T19:04:03.944Z,2.95
2022-11-14T19:06:33.912Z,3.09
2022-11-14T19:09:11.046Z,2.95
2022-11-14T19:11:58.910Z,2.89
2022-11-14T19:14:28.027Z,2.75
2022-11-14T19:16:59.731Z,2.71
2022-11-14T19:19:28.709Z,2.64
2022-11-14T19:21:59.060Z,2.58
2022-11-14T19:24:28.702Z,2.55
2022-11-14T19:26:58.156Z,2.48
2022-11-14T19:29:27.187Z,2.51
2022-11-14T19:31:57.816Z,2.51
2022-11-14T19:34:27.447Z,2.49
2022-11-14T19:37:01.046Z,2.61
2022-11-14T19:39:30.572Z,2.66
2022-11-14T19:41:59.915Z,2.60
2022-11-14T19:44:29.857Z,2.55
2022-11-14T19:47:01.529Z,2.54
2022-11-14T19:49:31.756Z,2.52
2022-11-14T19:52:00.677Z,2.44
2022-11-14T19:54:29.759Z,2.37
2022-11-14T19:56:59.497Z,2.35
2022-11-14T19:59:29.830Z,2.24
2022-11-14T20:02:00.518Z,2.30
2022-11-14T20:04:34.263Z,2.22
2022-11-14T20:07:08.991Z,2.19
2022-11-14T20:09:38.554Z,2.14
2022-11-14T20:12:08.355Z,2.04
2022-11-14T20:14:37.605Z,2.02
2022-11-14T20:17:11.279Z,2.00
2022-11-14T20:19:40.364Z,2.13
2022-11-14T20:22:10.703Z,2.31
2022-11-14T20:24:39.607Z,2.38
2022-11-14T20:27:10.269Z,2.35
2022-11-14T20:29:43.097Z,2.42
2022-11-14T20:32:19.007Z,2.52
2022-11-14T20:34:50.006Z,2.51
2022-11-14T20:37:22.435Z,2.47
2022-11-14T20:39:51.796Z,2.43
2022-11-14T20:42:23.344Z,2.46
2022-11-14T20:44:55.004Z,2.41
2022-11-14T20:47:27.971Z,2.38
2022-11-14T20:49:59.136Z,2.38
2022-11-14T20:52:33.715Z,2.45
2022-11-14T20:55:06.175Z,2.38
2022-11-14T20:57:44.883Z,2.42
2022-11-14T21:00:21.416Z,2.41
2022-11-14T21:02:54.235Z,2.42
2022-11-14T21:05:26.186Z,2.34
2022-11-14T21:07:55.297Z,2.49
2022-11-14T21:10:41.967Z,2.34
2022-11-14T21:13:28.427Z,2.34
2022-11-14T21:15:59.821Z,2.52
2022-11-14T21:18:30.733Z,2.42
2022-11-14T21:21:05.998Z,2.39
2022-11-14T21:23:36.542Z,2.27
2022-11-14T21:26:13.884Z,2.34
2022-11-14T21:28:47.023Z,2.34
2022-11-14T21:31:21.260Z,2.46
2022-11-14T21:33:58.269Z,2.59
2022-11-14T21:36:44.352Z,2.62
2022-11-14T21:39:18.208Z,2.66
2022-11-14T21:41:51.300Z,2.76
2022-11-14T21:44:21.709Z,2.75
2022-11-14T21:46:51.773Z,2.83
2022-11-14T21:49:23.603Z,2.87
2022-11-14T21:51:56.396Z,2.79
2022-11-14T21:54:29.740Z,2.71
2022-11-14T21:56:59.183Z,2.72
2022-11-14T21:59:29.297Z,2.72
2022-11-14T22:02:18.946Z,2.68
2022-11-14T22:04:51.223Z,2.64
2022-11-14T22:07:20.196Z,2.58
2022-11-14T22:09:53.137Z,2.54
2022-11-14T22:12:22.426Z,2.45
2022-11-14T22:14:52.012Z,2.55
2022-11-14T22:17:21.307Z,2.65
2022-11-14T22:19:51.590Z,2.72
2022-11-14T22:22:22.370Z,2.71
2022-11-14T22:24:52.061Z,2.76
2022-11-14T22:27:21.208Z,2.75
2022-11-14T22:29:50.700Z,2.71
2022-11-14T22:32:19.755Z,2.78
2022-11-14T22:34:48.662Z,2.75
2022-11-14T22:37:20.009Z,2.71
2022-11-14T22:39:49.232Z,2.75
2022-11-14T22:42:23.449Z,2.72
2022-11-14T22:44:52.343Z,2.74
2022-11-14T22:47:21.391Z,2.73
2022-11-14T22:49:50.921Z,2.76
2022-11-14T22:52:21.763Z,2.68
2022-11-14T22:54:51.908Z,2.68
2022-11-14T22:57:25.622Z,2.64
2022-11-14T22:59:54.667Z,2.69
2022-11-14T23:02:23.719Z,2.69
2022-11-14T23:04:53.324Z,2.74
2022-11-14T23:07:24.714Z,2.77
2022-11-14T23:09:54.035Z,2.82
2022-11-14T23:12:23.241Z,2.89
2022-11-14T23:14:54.001Z,2.92
2022-11-14T23:17:23.305Z,2.93
2022-11-14T23:19:52.459Z,3.02
2022-11-14T23:22:23.219Z,3.03
2022-11-14T23:24:52.015Z,3.02
2022-11-14T23:27:21.344Z,3.01
2022-11-14T23:29:50.525Z,3.01
2022-11-14T23:32:19.844Z,2.99
2022-11-14T23:34:50.253Z,3.00
2022-11-14T23:37:19.523Z,2.93
2022-11-14T23:39:50.631Z,3.00
2022-11-14T23:42:19.749Z,2.96
2022-11-14T23:44:48.722Z,2.98
2022-11-14T23:47:18.270Z,2.98
2022-11-14T23:49:47.358Z,2.95
2022-11-14T23:52:16.329Z,2.94
2022-11-14T23:54:45.659Z,2.93
2022-11-14T23:57:16.715Z,2.89
2022-11-14T23:59:46.042Z,2.87
